createdAt,value
2023-03-11T00:02:42.818Z,27.00
2023-03-11T00:06:42.799Z,27.03
2023-03-11T00:10:42.780Z,27.02
2023-03-11T00:14:42.724Z,27.02
2023-03-11T00:18:42.685Z,27.02
2023-03-11T00:22:42.666Z,27.03
2023-03-11T00:26:42.614Z,27.00
2023-03-11T00:30:42.757Z,27.02
2023-03-11T00:34:42.536Z,27.03
2023-03-11T00:38:42.529Z,27.00
2023-03-11T00:42:42.475Z,27.00
2023-03-11T00:46:42.441Z,27.02
2023-03-11T00:50:42.652Z,27.00
2023-03-11T00:54:42.795Z,27.02
2023-03-11T00:58:42.752Z,27.02
2023-03-11T01:02:42.739Z,27.03
2023-03-11T01:06:45.587Z,26.99
2023-03-11T01:10:42.648Z,27.02
2023-03-11T01:14:42.611Z,27.00
2023-03-11T01:18:42.574Z,27.02
2023-03-11T01:22:42.561Z,27.03
2023-03-11T01:26:42.512Z,26.99
2023-03-11T01:30:42.517Z,26.99
2023-03-11T01:34:42.408Z,27.02
2023-03-11T01:38:42.382Z,26.99
2023-03-11T01:42:42.361Z,26.99
2023-03-11T01:46:42.343Z,27.00
2023-03-11T01:50:42.492Z,26.97
2023-03-11T01:54:42.676Z,27.00
2023-03-11T01:58:42.806Z,26.99
2023-03-11T02:02:42.871Z,26.99
2023-03-11T02:06:42.758Z,26.99
2023-03-11T02:10:42.729Z,27.02
2023-03-11T02:14:42.670Z,26.97
2023-03-11T02:18:42.650Z,27.00
2023-03-11T02:22:42.611Z,26.97
2023-03-11T02:26:42.579Z,26.99
2023-03-11T02:30:42.578Z,26.97
2023-03-11T02:34:42.486Z,26.97
2023-03-11T02:38:42.463Z,26.97
2023-03-11T02:42:42.453Z,26.99
2023-03-11T02:46:42.461Z,26.97
2023-03-11T02:50:42.613Z,26.99
2023-03-11T02:54:42.587Z,26.96
2023-03-11T02:58:42.552Z,26.97
2023-03-11T03:02:42.510Z,27.00
2023-03-11T03:06:42.461Z,26.97
2023-03-11T03:10:42.432Z,26.99
2023-03-11T03:14:42.402Z,26.99
2023-03-11T03:18:42.363Z,26.96
2023-03-11T03:22:42.348Z,26.99
2023-03-11T03:26:42.310Z,26.94
2023-03-11T03:30:42.237Z,26.99
2023-03-11T03:34:42.219Z,26.94
2023-03-11T03:38:42.189Z,26.97
2023-03-11T03:42:42.122Z,26.96
2023-03-11T03:46:42.186Z,26.96
2023-03-11T03:50:42.265Z,26.96
2023-03-11T03:54:42.432Z,26.99
2023-03-11T03:58:42.561Z,26.97
2023-03-11T04:02:42.532Z,26.96
2023-03-11T04:06:42.485Z,26.96
2023-03-11T04:10:42.444Z,26.97
2023-03-11T04:14:42.411Z,26.97
2023-03-11T04:18:42.375Z,26.97
2023-03-11T04:22:42.347Z,26.97
2023-03-11T04:26:42.343Z,26.94
2023-03-11T04:30:42.291Z,26.96
2023-03-11T04:34:42.262Z,26.94
2023-03-11T04:38:42.172Z,26.94
2023-03-11T04:42:42.349Z,26.97
2023-03-11T04:46:42.553Z,26.94
2023-03-11T04:50:42.729Z,26.94
2023-03-11T04:54:42.966Z,26.94
2023-03-11T04:58:42.911Z,26.96
2023-03-11T05:02:42.871Z,26.94
2023-03-11T05:06:42.810Z,26.94
2023-03-11T05:10:42.780Z,26.94
2023-03-11T05:14:42.741Z,26.94
2023-03-11T05:18:42.724Z,26.94
2023-03-11T05:22:42.721Z,26.94
2023-03-11T05:26:42.633Z,26.94
2023-03-11T05:30:42.597Z,26.93
2023-03-11T05:34:42.568Z,26.96
2023-03-11T05:38:42.565Z,26.96
2023-03-11T05:42:42.524Z,26.94
2023-03-11T05:46:42.566Z,26.93
2023-03-11T05:50:42.420Z,26.97
2023-03-11T05:54:42.387Z,26.96
2023-03-11T05:58:42.430Z,26.97
2023-03-11T06:02:42.325Z,26.97
2023-03-11T06:06:42.277Z,26.97
2023-03-11T06:10:42.230Z,26.97
2023-03-11T06:14:42.210Z,27.00
2023-03-11T06:18:42.171Z,26.96
2023-03-11T06:22:42.546Z,27.00
2023-03-11T06:26:42.164Z,26.99
2023-03-11T06:30:42.033Z,27.00
2023-03-11T06:34:42.015Z,26.99
2023-03-11T06:38:41.985Z,27.02
2023-03-11T06:42:41.933Z,27.00
2023-03-11T06:46:41.939Z,27.02
2023-03-11T06:50:41.878Z,27.02
2023-03-11T06:54:41.963Z,27.03
2023-03-11T06:58:42.012Z,27.04
2023-03-11T07:02:42.102Z,27.04
2023-03-11T07:06:42.193Z,27.07
2023-03-11T07:10:42.301Z,27.07
2023-03-11T07:14:42.489Z,27.09
2023-03-11T07:18:42.666Z,27.11
2023-03-11T07:22:42.836Z,27.10
2023-03-11T07:26:44.505Z,27.13
2023-03-11T07:30:43.097Z,27.11
2023-03-11T07:34:43.210Z,27.13
2023-03-11T07:38:43.357Z,27.14
2023-03-11T07:42:43.531Z,27.15
2023-03-11T07:46:43.706Z,27.17
2023-03-11T07:50:43.683Z,27.17
2023-03-11T07:54:43.624Z,27.15
2023-03-11T07:58:45.607Z,27.20
2023-03-11T08:02:43.655Z,27.23
2023-03-11T08:06:43.783Z,27.24
2023-03-11T08:10:43.758Z,27.24
2023-03-11T08:14:43.703Z,27.24
2023-03-11T08:18:43.671Z,27.26
2023-03-11T08:22:57.236Z,27.26
2023-03-11T08:26:44.589Z,27.29
2023-03-11T08:30:43.550Z,27.30
2023-03-11T08:34:43.694Z,27.32
2023-03-11T08:38:43.913Z,27.33
2023-03-11T08:42:44.096Z,27.36
2023-03-11T08:46:44.387Z,27.38
2023-03-11T08:50:54.032Z,27.40
2023-03-11T08:54:45.503Z,27.40
2023-03-11T08:58:44.458Z,27.41
2023-03-11T09:02:44.565Z,27.41
2023-03-11T09:06:44.721Z,27.44
2023-03-11T09:10:44.939Z,27.41
2023-03-11T09:14:45.099Z,27.44
2023-03-11T09:18:45.344Z,27.47
2023-03-11T09:22:45.504Z,27.48
2023-03-11T09:26:45.687Z,27.50
2023-03-11T09:30:45.801Z,27.51
2023-03-11T09:34:45.958Z,27.53
2023-03-11T09:38:46.143Z,27.51
2023-03-11T09:42:46.323Z,27.54
2023-03-11T09:46:46.506Z,27.55
2023-03-11T09:50:46.610Z,27.58
2023-03-11T09:54:46.756Z,27.64
2023-03-11T09:58:46.875Z,27.71
2023-03-11T10:02:47.085Z,27.72
2023-03-11T10:06:47.037Z,27.80
2023-03-11T10:10:47.090Z,27.87
2023-03-11T10:14:47.153Z,27.94
2023-03-11T10:18:47.139Z,27.99
2023-03-11T10:22:47.144Z,28.22
2023-03-11T10:26:47.366Z,28.22
2023-03-11T10:30:47.536Z,28.22
2023-03-11T10:34:47.737Z,28.26
2023-03-11T10:38:47.945Z,28.26
2023-03-11T10:42:48.123Z,28.53
2023-03-11T10:46:48.339Z,28.55
2023-03-11T10:50:48.511Z,28.49
2023-03-11T10:54:48.706Z,28.52
2023-03-11T10:58:48.906Z,28.45
2023-03-11T11:02:49.076Z,28.51
2023-03-11T11:06:49.275Z,28.51
2023-03-11T11:10:49.452Z,28.72
2023-03-11T11:14:49.591Z,28.83
2023-03-11T11:18:49.705Z,28.77
2023-03-11T11:22:49.865Z,28.94
2023-03-11T11:26:49.983Z,28.93
2023-03-11T11:30:50.071Z,28.97
2023-03-11T11:34:50.097Z,28.97
2023-03-11T11:38:50.165Z,29.07
2023-03-11T11:42:50.191Z,28.96
2023-03-11T11:46:50.221Z,28.94
2023-03-11T11:50:50.445Z,28.96
2023-03-11T11:54:50.417Z,29.04
2023-03-11T11:58:50.394Z,29.13
2023-03-11T12:02:50.371Z,29.18
2023-03-11T12:06:50.300Z,29.24
2023-03-11T12:10:50.285Z,29.26
2023-03-11T12:14:50.229Z,29.31
2023-03-11T12:18:50.193Z,29.34
2023-03-11T12:22:50.149Z,29.36
2023-03-11T12:26:50.159Z,29.33
2023-03-11T12:30:50.203Z,29.36
2023-03-11T12:34:50.051Z,29.36
2023-03-11T12:38:50.017Z,29.36
2023-03-11T12:42:49.976Z,29.36
2023-03-11T12:46:49.994Z,29.36
2023-03-11T12:50:49.899Z,29.37
2023-03-11T12:54:49.880Z,29.36
2023-03-11T12:58:49.819Z,29.36
2023-03-11T13:02:49.857Z,29.34
2023-03-11T13:06:49.762Z,29.34
2023-03-11T13:10:49.727Z,29.33
2023-03-11T13:14:49.660Z,29.31
2023-03-11T13:18:49.632Z,29.33
2023-03-11T13:22:49.608Z,29.31
2023-03-11T13:26:49.557Z,29.30
2023-03-11T13:30:49.548Z,29.27
2023-03-11T13:34:49.517Z,29.23
2023-03-11T13:38:49.453Z,29.20
2023-03-11T13:42:49.429Z,29.14
2023-03-11T13:46:49.477Z,29.14
2023-03-11T13:50:49.528Z,29.09
2023-03-11T13:54:49.548Z,29.02
2023-03-11T13:58:49.562Z,29.00
2023-03-11T14:02:49.596Z,28.94
2023-03-11T14:06:49.658Z,28.87
2023-03-11T14:10:49.705Z,28.83
2023-03-11T14:14:49.755Z,28.82
2023-03-11T14:18:49.824Z,28.73
2023-03-11T14:22:49.909Z,28.70
2023-03-11T14:26:50.021Z,28.70
2023-03-11T14:30:50.029Z,28.67
2023-03-11T14:34:50.153Z,28.62
2023-03-11T14:38:50.284Z,28.62
2023-03-11T14:42:50.397Z,28.60
2023-03-11T14:46:50.503Z,28.58
2023-03-11T14:50:50.627Z,28.56
2023-03-11T14:54:50.789Z,28.53
2023-03-11T14:59:01.655Z,28.52
2023-03-11T15:02:51.890Z,28.51
2023-03-11T15:06:50.856Z,28.51
2023-03-11T15:10:50.933Z,28.48
2023-03-11T15:14:51.202Z,28.43
2023-03-11T15:18:51.306Z,28.42
2023-03-11T15:22:51.481Z,28.39
2023-03-11T15:26:51.682Z,28.36
2023-03-11T15:30:51.932Z,28.34
2023-03-11T15:34:52.096Z,28.32
2023-03-11T15:38:52.308Z,28.28
2023-03-11T15:42:52.234Z,28.25
2023-03-11T15:46:52.211Z,28.25
2023-03-11T15:50:53.654Z,28.22
2023-03-11T15:54:55.972Z,28.22
2023-03-11T15:58:52.127Z,28.19
2023-03-11T16:02:52.108Z,28.16
2023-03-11T16:07:06.877Z,28.15
2023-03-11T16:10:53.091Z,28.12
2023-03-11T16:14:52.040Z,28.09
2023-03-11T16:18:52.146Z,28.09
2023-03-11T16:22:52.330Z,28.08
2023-03-11T16:26:52.317Z,28.07
2023-03-11T16:30:52.395Z,28.02
2023-03-11T16:34:52.394Z,27.98
2023-03-11T16:38:52.375Z,27.98
2023-03-11T16:42:52.445Z,27.95
2023-03-11T16:46:52.363Z,27.95
2023-03-11T16:50:52.402Z,27.92
2023-03-11T16:54:52.389Z,27.91
2023-03-11T16:58:52.481Z,27.88
2023-03-11T17:02:52.465Z,27.89
2023-03-11T17:06:52.500Z,27.85
2023-03-11T17:10:52.563Z,27.84
2023-03-11T17:14:52.569Z,27.78
2023-03-11T17:18:52.642Z,27.78
2023-03-11T17:22:52.718Z,27.80
2023-03-11T17:26:52.867Z,27.78
2023-03-11T17:30:52.897Z,27.77
2023-03-11T17:34:52.940Z,27.74
2023-03-11T17:38:53.053Z,27.72
2023-03-11T17:42:53.316Z,27.69
2023-03-11T17:46:53.388Z,27.71
2023-03-11T17:50:53.349Z,27.69
2023-03-11T17:54:53.430Z,27.68
2023-03-11T17:58:53.415Z,27.65
2023-03-11T18:02:53.391Z,27.64
2023-03-11T18:06:53.417Z,27.64
2023-03-11T18:10:53.339Z,27.62
2023-03-11T18:14:53.340Z,27.61
2023-03-11T18:18:53.253Z,27.60
2023-03-11T18:22:53.174Z,27.60
2023-03-11T18:26:53.135Z,27.60
2023-03-11T18:30:53.113Z,27.55
2023-03-11T18:34:53.109Z,27.55
2023-03-11T18:38:53.048Z,27.57
2023-03-11T18:42:53.026Z,27.55
2023-03-11T18:46:53.068Z,27.54
2023-03-11T18:50:53.002Z,27.53
2023-03-11T18:54:53.040Z,27.54
2023-03-11T18:58:53.165Z,27.53
2023-03-11T19:02:53.440Z,27.50
2023-03-11T19:06:53.477Z,27.50
2023-03-11T19:10:53.672Z,27.51
2023-03-11T19:14:53.786Z,27.53
2023-03-11T19:18:53.989Z,27.51
2023-03-11T19:22:54.196Z,27.48
2023-03-11T19:26:55.905Z,27.50
2023-03-11T19:30:54.581Z,27.47
2023-03-11T19:34:54.727Z,27.47
2023-03-11T19:38:54.881Z,27.50
2023-03-11T19:42:55.121Z,27.47
2023-03-11T19:46:55.309Z,27.45
2023-03-11T19:50:55.423Z,27.50
2023-03-11T19:54:55.638Z,27.48
2023-03-11T19:58:55.780Z,27.48
2023-03-11T20:02:55.999Z,27.48
2023-03-11T20:06:56.190Z,27.45
2023-03-11T20:10:56.164Z,27.44
2023-03-11T20:14:56.103Z,27.48
2023-03-11T20:18:56.068Z,27.45
2023-03-11T20:22:56.070Z,27.47
2023-03-11T20:26:56.014Z,27.45
2023-03-11T20:30:56.057Z,27.44
2023-03-11T20:34:55.928Z,27.43
2023-03-11T20:38:55.889Z,27.44
2023-03-11T20:42:55.906Z,27.44
2023-03-11T20:46:55.888Z,27.41
2023-03-11T20:50:55.840Z,27.40
2023-03-11T20:54:55.773Z,27.43
2023-03-11T20:58:56.016Z,27.41
2023-03-11T21:02:56.151Z,27.43
2023-03-11T21:06:56.426Z,27.43
2023-03-11T21:10:56.470Z,27.40
2023-03-11T21:14:56.795Z,27.38
2023-03-11T21:18:56.875Z,27.40
2023-03-11T21:22:57.027Z,27.40
2023-03-11T21:26:57.268Z,27.40
2023-03-11T21:30:57.497Z,27.41
2023-03-11T21:34:57.595Z,27.38
2023-03-11T21:38:57.813Z,27.38
2023-03-11T21:42:57.932Z,27.37
2023-03-11T21:46:58.612Z,27.41
2023-03-11T21:50:58.417Z,27.38
2023-03-11T21:54:58.549Z,27.37
2023-03-11T21:58:58.737Z,27.38
2023-03-11T22:02:58.822Z,27.36
2023-03-11T22:06:59.038Z,27.36
2023-03-11T22:10:59.227Z,27.37
2023-03-11T22:14:59.500Z,27.37
2023-03-11T22:18:59.626Z,27.36
2023-03-11T22:22:59.794Z,27.34
2023-03-11T22:27:00.467Z,27.37
2023-03-11T22:31:00.155Z,27.36
2023-03-11T22:35:00.336Z,27.34
2023-03-11T22:39:00.512Z,27.37
2023-03-11T22:43:00.511Z,27.34
2023-03-11T22:47:00.467Z,27.34
2023-03-11T22:51:00.433Z,27.36
2023-03-11T22:55:00.425Z,27.34
2023-03-11T22:59:00.335Z,27.34
2023-03-11T23:03:00.383Z,27.34
2023-03-11T23:07:00.281Z,27.33
2023-03-11T23:11:00.241Z,27.32
2023-03-11T23:15:00.206Z,27.34
2023-03-11T23:19:00.182Z,27.34
2023-03-11T23:23:00.122Z,27.33
2023-03-11T23:27:00.166Z,27.33
2023-03-11T23:31:00.274Z,27.33
2023-03-11T23:35:00.099Z,27.32
2023-03-11T23:39:00.048Z,27.30
2023-03-11T23:43:00.031Z,27.32
2023-03-11T23:46:59.993Z,27.33
2023-03-11T23:50:59.940Z,27.30
2023-03-11T23:54:59.922Z,27.30
2023-03-11T23:58:59.852Z,27.30
